Time,TemperatureF,DewpointF,PressureIn,WindDirection,WindDirectionDegrees,WindSpeedMPH,WindSpeedGustMPH,Humidity,HourlyPrecipIn,Conditions,Clouds,dailyrainin,SoftwareType,DateUTC
2013-10-04 00:00:00,50.7,47.8,30.06,NNW,342,0.0,2.0,90,0.00,,,0.01,meteohub,2013-10-04 04:00:00,
2013-10-04 00:31:00,49.8,46.9,30.06,NNW,342,0.0,1.0,90,0.00,,,0.00,meteohub,2013-10-04 04:31:00,
2013-10-04 00:32:00,49.8,47.3,30.06,NNW,342,0.0,1.0,91,0.00,,,0.00,meteohub,2013-10-04 04:32:00,
2013-10-04 00:35:00,49.8,47.7,30.06,NNW,342,1.0,1.0,92,0.00,,,0.00,meteohub,2013-10-04 04:35:00,
2013-10-04 00:36:00,49.8,47.7,30.06,NNW,342,1.0,1.0,92,0.00,,,0.00,meteohub,2013-10-04 04:36:00,
2013-10-04 00:38:00,49.8,47.7,30.06,NNW,342,0.0,1.0,92,0.00,,,0.00,meteohub,2013-10-04 04:38:00,
2013-10-04 00:40:00,49.6,47.5,30.06,NNW,342,0.0,2.0,92,0.00,,,0.00,meteohub,2013-10-04 04:40:00,
2013-10-04 00:42:00,49.6,47.1,30.06,NNW,342,0.0,2.0,91,0.00,,,0.00,meteohub,2013-10-04 04:42:00,
2013-10-04 00:43:00,49.6,47.1,30.06,NNW,342,0.0,2.0,91,0.00,,,0.00,meteohub,2013-10-04 04:43:00,
2013-10-04 00:44:00,49.6,47.5,30.06,NNW,342,0.0,2.0,92,0.00,,,0.00,meteohub,2013-10-04 04:44:00,
2013-10-04 00:45:00,49.6,47.5,30.06,NNW,342,0.0,2.0,92,0.00,,,0.00,meteohub,2013-10-04 04:45:00,
2013-10-04 00:46:00,49.6,47.1,30.06,NNW,342,0.0,2.0,91,0.00,,,0.00,meteohub,2013-10-04 04:46:00,
2013-10-04 00:47:00,49.6,47.5,30.06,NNW,342,0.0,2.0,92,0.00,,,0.00,meteohub,2013-10-04 04:47:00,
2013-10-04 00:50:00,49.5,47.3,30.06,NNW,342,0.0,1.0,92,0.00,,,0.00,meteohub,2013-10-04 04:50:00,
2013-10-04 00:53:00,49.5,47.3,30.06,NNW,342,0.0,1.0,92,0.00,,,0.00,meteohub,2013-10-04 04:53:00,
2013-10-04 00:55:00,49.5,47.5,30.06,NNW,342,0.0,1.0,93,0.00,,,0.00,meteohub,2013-10-04 04:55:00,
2013-10-04 01:00:00,49.3,47.1,30.06,NNW,342,0.0,1.0,92,0.00,,,0.00,meteohub,2013-10-04 05:00:00,
2013-10-04 01:01:00,49.3,47.1,30.06,NNW,342,0.0,1.0,92,0.00,,,0.00,meteohub,2013-10-04 05:01:00,
2013-10-04 01:03:00,49.3,47.1,30.06,NNW,342,0.0,1.0,92,0.00,,,0.00,meteohub,2013-10-04 05:03:00,
2013-10-04 01:05:00,49.3,47.1,30.06,NNW,342,0.0,1.0,92,0.00,,,0.00,meteohub,2013-10-04 05:05:00,
2013-10-04 01:10:00,49.1,46.9,30.07,NNW,342,0.0,0.0,92,0.00,,,0.00,meteohub,2013-10-04 05:10:00,
2013-10-04 01:11:00,49.1,46.9,30.07,NNW,342,0.0,0.0,92,0.00,,,0.00,meteohub,2013-10-04 05:11:00,
2013-10-04 01:12:00,49.1,46.9,30.07,NNW,342,0.0,0.0,92,0.00,,,0.00,meteohub,2013-10-04 05:12:00,
2013-10-04 01:14:00,49.1,46.9,30.07,NNW,342,0.0,0.0,92,0.00,,,0.00,meteohub,2013-10-04 05:14:00,
2013-10-04 01:15:00,48.9,46.8,30.07,NNW,342,0.0,1.0,92,0.00,,,0.00,meteohub,2013-10-04 05:15:00,
2013-10-04 01:17:00,48.9,46.8,30.07,NNW,342,0.0,1.0,92,0.00,,,0.00,meteohub,2013-10-04 05:17:00,
2013-10-04 01:20:00,48.9,46.8,30.07,NNW,342,0.0,1.0,92,0.00,,,0.00,meteohub,2013-10-04 05:20:00,
2013-10-04 01:25:00,48.7,46.6,30.07,NNW,342,0.0,1.0,92,0.00,,,0.00,meteohub,2013-10-04 05:25:00,
2013-10-04 01:27:00,48.7,46.6,30.07,NNW,342,0.0,1.0,92,0.00,,,0.00,meteohub,2013-10-04 05:27:00,
2013-10-04 01:32:00,48.6,46.0,30.07,NNW,342,0.0,0.0,91,0.00,,,0.00,meteohub,2013-10-04 05:32:00,
2013-10-04 01:37:00,48.4,46.2,30.07,NNW,342,0.0,0.0,92,0.00,,,0.00,meteohub,2013-10-04 05:37:00,
2013-10-04 01:42:00,48.2,45.7,30.07,NNW,342,0.0,0.0,91,0.00,,,0.00,meteohub,2013-10-04 05:42:00,
2013-10-04 01:47:00,48.0,45.9,30.07,NNW,342,0.0,0.0,92,0.00,,,0.00,meteohub,2013-10-04 05:47:00,
2013-10-04 01:52:00,48.0,46.0,30.07,NNW,347,2.0,0.0,93,0.00,,,0.00,meteohub,2013-10-04 05:52:00,
2013-10-04 01:57:00,47.8,45.9,30.07,NNW,347,0.0,3.0,93,0.00,,,0.00,meteohub,2013-10-04 05:57:00,
2013-10-04 02:02:00,47.8,46.2,30.07,NNW,347,0.0,3.0,94,0.00,,,0.00,meteohub,2013-10-04 06:02:00,
2013-10-04 02:07:00,47.7,45.7,30.06,NNW,347,1.0,3.0,93,0.00,,,0.00,meteohub,2013-10-04 06:07:00,
2013-10-04 02:12:00,47.7,46.0,30.06,NNW,342,1.0,1.0,94,0.00,,,0.00,meteohub,2013-10-04 06:12:00,
2013-10-04 02:17:00,47.7,46.0,30.06,NNW,342,0.0,2.0,94,0.00,,,0.00,meteohub,2013-10-04 06:17:00,
2013-10-04 02:22:00,47.7,46.0,30.06,NNW,342,0.0,2.0,94,0.00,,,0.00,meteohub,2013-10-04 06:22:00,
2013-10-04 02:27:00,47.5,45.5,30.06,NNW,342,0.0,2.0,93,0.00,,,0.00,meteohub,2013-10-04 06:27:00,
2013-10-04 02:32:00,47.3,45.3,30.06,NNW,342,0.0,1.0,93,0.00,,,0.00,meteohub,2013-10-04 06:32:00,
2013-10-04 02:37:00,47.1,45.1,30.06,NNW,342,0.0,1.0,93,0.00,,,0.00,meteohub,2013-10-04 06:37:00,
2013-10-04 02:42:00,46.9,45.0,30.06,NNW,342,0.0,0.0,93,0.00,,,0.00,meteohub,2013-10-04 06:42:00,
2013-10-04 02:47:00,47.1,45.5,30.06,NNW,342,0.0,1.0,94,0.00,,,0.00,meteohub,2013-10-04 06:47:00,
2013-10-04 02:52:00,46.9,45.3,30.06,NNW,342,0.0,2.0,94,0.00,,,0.00,meteohub,2013-10-04 06:52:00,
2013-10-04 02:57:00,46.9,45.0,30.06,NNW,342,0.0,2.0,93,0.00,,,0.00,meteohub,2013-10-04 06:57:00,
2013-10-04 03:02:00,46.8,45.1,30.06,NNW,342,0.0,2.0,94,0.00,,,0.00,meteohub,2013-10-04 07:02:00,
2013-10-04 03:07:00,46.6,44.6,30.06,NNW,342,0.0,0.0,93,0.00,,,0.00,meteohub,2013-10-04 07:07:00,
2013-10-04 03:12:00,46.4,44.4,30.06,NNW,342,0.0,0.0,93,0.00,,,0.00,meteohub,2013-10-04 07:12:00,
2013-10-04 03:17:00,46.2,44.2,30.06,NNW,342,0.0,0.0,93,0.00,,,0.00,meteohub,2013-10-04 07:17:00,
2013-10-04 03:22:00,46.2,44.2,30.06,NNW,342,0.0,0.0,93,0.00,,,0.00,meteohub,2013-10-04 07:22:00,
2013-10-04 03:27:00,46.2,44.6,30.06,NNW,342,0.0,0.0,94,0.00,,,0.00,meteohub,2013-10-04 07:27:00,
2013-10-04 03:32:00,46.2,44.6,30.06,NNW,342,2.0,0.0,94,0.00,,,0.00,meteohub,2013-10-04 07:32:00,
2013-10-04 03:37:00,46.0,44.6,30.06,NNW,342,1.0,2.0,95,0.00,,,0.00,meteohub,2013-10-04 07:37:00,
2013-10-04 03:42:00,46.0,44.6,30.06,NNW,342,0.0,3.0,95,0.00,,,0.00,meteohub,2013-10-04 07:42:00,
2013-10-04 03:47:00,46.0,44.4,30.06,NNW,342,0.0,3.0,94,0.00,,,0.00,meteohub,2013-10-04 07:47:00,
2013-10-04 03:52:00,45.9,44.2,30.06,NNW,342,0.0,2.0,94,0.00,,,0.00,meteohub,2013-10-04 07:52:00,
2013-10-04 03:57:00,45.7,44.1,30.06,NNW,342,0.0,0.0,94,0.00,,,0.00,meteohub,2013-10-04 07:57:00,
2013-10-04 04:02:00,45.7,44.4,30.05,NNW,342,0.0,0.0,95,0.00,,,0.00,meteohub,2013-10-04 08:02:00,
2013-10-04 04:07:00,45.9,44.4,30.06,NNW,342,2.0,0.0,95,0.00,,,0.00,meteohub,2013-10-04 08:07:00,
2013-10-04 04:12:00,45.9,44.4,30.05,NNW,342,0.0,2.0,95,0.00,,,0.00,meteohub,2013-10-04 08:12:00,
2013-10-04 04:17:00,45.7,44.4,30.06,NNW,342,0.0,2.0,95,0.00,,,0.00,meteohub,2013-10-04 08:17:00,
2013-10-04 04:22:00,45.7,44.1,30.06,NNW,342,0.0,2.0,94,0.00,,,0.00,meteohub,2013-10-04 08:22:00,
2013-10-04 04:27:00,45.7,44.4,30.06,NNW,342,1.0,0.0,95,0.00,,,0.00,meteohub,2013-10-04 08:27:00,
2013-10-04 04:32:00,45.7,44.4,30.06,NNW,342,2.0,2.0,95,0.00,,,0.00,meteohub,2013-10-04 08:32:00,
2013-10-04 04:37:00,45.7,44.4,30.06,NNW,342,1.0,2.0,95,0.00,,,0.00,meteohub,2013-10-04 08:37:00,
2013-10-04 04:42:00,45.9,44.4,30.06,NNW,342,1.0,2.0,95,0.00,,,0.00,meteohub,2013-10-04 08:42:00,
2013-10-04 04:47:00,45.7,44.4,30.06,NNW,342,0.0,2.0,95,0.00,,,0.00,meteohub,2013-10-04 08:47:00,
2013-10-04 04:52:00,45.7,44.4,30.06,NNW,342,0.0,2.0,95,0.00,,,0.00,meteohub,2013-10-04 08:52:00,
2013-10-04 04:57:00,45.9,44.4,30.06,NNW,342,0.0,2.0,95,0.00,,,0.00,meteohub,2013-10-04 08:57:00,
2013-10-04 05:02:00,45.9,44.4,30.06,NNW,342,0.0,2.0,95,0.00,,,0.00,meteohub,2013-10-04 09:02:00,
2013-10-04 05:07:00,45.9,44.4,30.06,NNW,342,0.0,2.0,95,0.00,,,0.00,meteohub,2013-10-04 09:07:00,
2013-10-04 05:12:00,45.9,44.4,30.06,NNW,342,0.0,0.0,95,0.00,,,0.00,meteohub,2013-10-04 09:12:00,
2013-10-04 05:17:00,45.9,44.4,30.06,NNW,342,0.0,0.0,95,0.00,,,0.00,meteohub,2013-10-04 09:17:00,
2013-10-04 05:22:00,45.9,44.8,30.06,NNW,342,0.0,0.0,96,0.00,,,0.00,meteohub,2013-10-04 09:22:00,
2013-10-04 05:27:00,46.0,45.0,30.06,NNW,342,1.0,0.0,96,0.00,,,0.00,meteohub,2013-10-04 09:27:00,
2013-10-04 05:32:00,46.2,45.1,30.06,NNW,342,1.0,1.0,96,0.00,,,0.00,meteohub,2013-10-04 09:32:00,
2013-10-04 05:37:00,46.2,45.1,30.06,NNW,342,0.0,2.0,96,0.00,,,0.00,meteohub,2013-10-04 09:37:00,
2013-10-04 05:42:00,46.2,44.8,30.06,NNW,342,0.0,2.0,95,0.00,,,0.00,meteohub,2013-10-04 09:42:00,
2013-10-04 05:47:00,46.4,45.0,30.06,NNW,342,0.0,2.0,95,0.00,,,0.00,meteohub,2013-10-04 09:47:00,
2013-10-04 05:52:00,46.6,45.5,30.06,North,349,1.0,1.0,96,0.00,,,0.00,meteohub,2013-10-04 09:52:00,
2013-10-04 05:57:00,46.9,45.9,30.06,North,349,2.0,2.0,96,0.00,,,0.00,meteohub,2013-10-04 09:57:00,
2013-10-04 06:02:00,46.9,45.9,30.06,NNW,337,1.0,3.0,96,0.00,,,0.00,meteohub,2013-10-04 10:02:00,
2013-10-04 06:07:00,46.9,45.5,30.06,NNW,337,0.0,4.0,95,0.00,,,0.00,meteohub,2013-10-04 10:07:00,
2013-10-04 06:12:00,46.9,45.5,30.06,NNW,337,0.0,4.0,95,0.00,,,0.00,meteohub,2013-10-04 10:12:00,
2013-10-04 06:17:00,47.1,45.7,30.06,NNW,337,0.0,3.0,95,0.00,,,0.00,meteohub,2013-10-04 10:17:00,
2013-10-04 06:22:00,47.1,45.7,30.07,NNW,337,0.0,1.0,95,0.00,,,0.00,meteohub,2013-10-04 10:22:00,
2013-10-04 06:27:00,47.1,45.7,30.06,NNW,337,0.0,1.0,95,0.00,,,0.00,meteohub,2013-10-04 10:27:00,
2013-10-04 06:32:00,47.1,45.7,30.07,NNW,337,0.0,0.0,95,0.00,,,0.00,meteohub,2013-10-04 10:32:00,
2013-10-04 06:37:00,47.3,45.9,30.07,NNW,337,0.0,0.0,95,0.00,,,0.00,meteohub,2013-10-04 10:37:00,
2013-10-04 06:42:00,47.3,45.9,30.07,NNW,337,0.0,1.0,95,0.00,,,0.00,meteohub,2013-10-04 10:42:00,
2013-10-04 06:47:00,47.5,46.0,30.07,NNW,337,1.0,1.0,95,0.00,,,0.00,meteohub,2013-10-04 10:47:00,
2013-10-04 06:52:00,47.7,46.2,30.07,NNW,337,0.0,2.0,95,0.00,,,0.00,meteohub,2013-10-04 10:52:00,
2013-10-04 06:57:00,47.7,46.2,30.07,NNW,337,0.0,2.0,95,0.00,,,0.00,meteohub,2013-10-04 10:57:00,
2013-10-04 07:02:00,47.7,46.2,30.07,NNW,337,0.0,2.0,95,0.00,,,0.00,meteohub,2013-10-04 11:02:00,
2013-10-04 07:07:00,47.8,46.4,30.07,NNW,337,0.0,2.0,95,0.00,,,0.00,meteohub,2013-10-04 11:07:00,
2013-10-04 07:13:00,47.8,46.4,30.07,NNW,337,1.0,2.0,95,0.00,,,0.00,meteohub,2013-10-04 11:13:00,
2013-10-04 07:18:00,48.0,46.6,30.07,NNW,337,0.0,2.0,95,0.00,,,0.00,meteohub,2013-10-04 11:18:00,
2013-10-04 07:23:00,48.0,46.6,30.08,NNW,337,0.0,2.0,95,0.00,,,0.00,meteohub,2013-10-04 11:23:00,
2013-10-04 07:28:00,48.4,46.9,30.08,NNW,337,0.0,2.0,95,0.00,,,0.00,meteohub,2013-10-04 11:28:00,
2013-10-04 07:33:00,48.4,46.8,30.08,NNW,337,0.0,2.0,94,0.00,,,0.00,meteohub,2013-10-04 11:33:00,
2013-10-04 07:38:00,48.6,46.9,30.08,NNW,337,0.0,1.0,94,0.00,,,0.00,meteohub,2013-10-04 11:38:00,
2013-10-04 07:43:00,48.7,47.1,30.08,NNW,337,0.0,1.0,94,0.00,,,0.00,meteohub,2013-10-04 11:43:00,
2013-10-04 07:48:00,48.7,47.1,30.08,NE,47,0.0,1.0,94,0.00,,,0.00,meteohub,2013-10-04 11:48:00,
2013-10-04 07:53:00,48.9,47.3,30.08,ESE,103,0.0,2.0,94,0.00,,,0.00,meteohub,2013-10-04 11:53:00,
2013-10-04 07:58:00,48.9,46.9,30.08,ESE,103,0.0,2.0,93,0.00,,,0.00,meteohub,2013-10-04 11:58:00,
2013-10-04 08:03:00,48.9,46.9,30.08,ESE,103,0.0,2.0,93,0.00,,,0.00,meteohub,2013-10-04 12:03:00,
2013-10-04 08:08:00,49.3,47.7,30.09,ESE,103,0.0,1.0,94,0.00,,,0.00,meteohub,2013-10-04 12:08:00,
2013-10-04 08:13:00,49.5,47.8,30.08,ESE,103,0.0,2.0,94,0.00,,,0.00,meteohub,2013-10-04 12:13:00,
2013-10-04 08:18:00,49.6,48.0,30.08,ESE,103,0.0,2.0,94,0.00,,,0.00,meteohub,2013-10-04 12:18:00,
2013-10-04 08:23:00,49.6,48.0,30.08,ESE,103,0.0,2.0,94,0.00,,,0.00,meteohub,2013-10-04 12:23:00,
2013-10-04 08:28:00,49.8,48.2,30.08,ESE,103,0.0,1.0,94,0.00,,,0.00,meteohub,2013-10-04 12:28:00,
2013-10-04 08:33:00,50.2,48.2,30.08,ESE,103,0.0,0.0,93,0.00,,,0.00,meteohub,2013-10-04 12:33:00,
2013-10-04 08:38:00,50.4,48.4,30.08,ESE,103,0.0,0.0,93,0.00,,,0.00,meteohub,2013-10-04 12:38:00,
2013-10-04 08:43:00,50.5,48.4,30.09,ESE,103,0.0,0.0,92,0.00,,,0.00,meteohub,2013-10-04 12:43:00,
2013-10-04 08:48:00,50.7,48.6,30.09,ESE,103,0.0,0.0,92,0.00,,,0.00,meteohub,2013-10-04 12:48:00,
2013-10-04 08:53:00,51.1,49.1,30.09,East,97,0.0,1.0,93,0.00,,,0.00,meteohub,2013-10-04 12:53:00,
2013-10-04 08:58:00,51.3,49.1,30.09,East,97,0.0,1.0,92,0.00,,,0.00,meteohub,2013-10-04 12:58:00,
2013-10-04 09:03:00,51.4,48.9,30.09,East,97,0.0,1.0,91,0.00,,,0.00,meteohub,2013-10-04 13:03:00,
2013-10-04 09:08:00,51.8,49.3,30.09,East,97,0.0,1.0,91,0.00,,,0.00,meteohub,2013-10-04 13:08:00,
2013-10-04 09:13:00,52.0,49.5,30.09,East,97,0.0,1.0,91,0.00,,,0.00,meteohub,2013-10-04 13:13:00,
2013-10-04 09:18:00,52.0,49.1,30.09,East,97,0.0,1.0,90,0.00,,,0.00,meteohub,2013-10-04 13:18:00,
2013-10-04 09:23:00,52.2,49.3,30.09,East,97,0.0,2.0,90,0.00,,,0.00,meteohub,2013-10-04 13:23:00,
2013-10-04 09:28:00,52.2,49.3,30.10,East,97,0.0,2.0,90,0.00,,,0.00,meteohub,2013-10-04 13:28:00,
2013-10-04 09:33:00,52.3,49.5,30.10,East,97,0.0,1.0,90,0.00,,,0.00,meteohub,2013-10-04 13:33:00,
2013-10-04 09:38:00,52.5,49.6,30.10,East,97,1.0,1.0,90,0.00,,,0.00,meteohub,2013-10-04 13:38:00,
2013-10-04 09:43:00,52.7,49.5,30.10,East,97,0.0,1.0,89,0.00,,,0.00,meteohub,2013-10-04 13:43:00,
2013-10-04 09:48:00,52.9,49.6,30.09,East,97,0.0,1.0,89,0.00,,,0.00,meteohub,2013-10-04 13:48:00,
2013-10-04 09:53:00,53.1,49.8,30.09,East,97,0.0,1.0,89,0.00,,,0.00,meteohub,2013-10-04 13:53:00,
2013-10-04 09:58:00,53.1,49.8,30.09,East,97,0.0,1.0,89,0.00,,,0.00,meteohub,2013-10-04 13:58:00,
2013-10-04 10:03:00,53.2,50.0,30.09,East,97,0.0,0.0,89,0.00,,,0.00,meteohub,2013-10-04 14:03:00,
2013-10-04 10:08:00,53.4,50.2,30.09,East,97,0.0,0.0,89,0.00,,,0.00,meteohub,2013-10-04 14:08:00,
2013-10-04 10:13:00,53.8,50.5,30.09,East,97,0.0,0.0,89,0.00,,,0.00,meteohub,2013-10-04 14:13:00,
2013-10-04 10:18:00,54.0,50.7,30.09,East,97,0.0,0.0,89,0.00,,,0.00,meteohub,2013-10-04 14:18:00,
2013-10-04 10:23:00,54.1,50.9,30.09,East,97,0.0,1.0,89,0.00,,,0.00,meteohub,2013-10-04 14:23:00,
2013-10-04 10:28:00,54.3,50.9,30.09,East,97,0.0,1.0,88,0.00,,,0.00,meteohub,2013-10-04 14:28:00,
2013-10-04 10:33:00,54.5,51.3,30.10,East,97,0.0,1.0,89,0.00,,,0.00,meteohub,2013-10-04 14:33:00,
2013-10-04 10:38:00,54.9,51.6,30.09,East,97,0.0,1.0,89,0.00,,,0.00,meteohub,2013-10-04 14:38:00,
2013-10-04 10:43:00,55.0,51.6,30.09,East,97,1.0,1.0,88,0.00,,,0.00,meteohub,2013-10-04 14:43:00,
2013-10-04 10:48:00,55.4,51.6,30.09,East,97,0.0,1.0,87,0.00,,,0.00,meteohub,2013-10-04 14:48:00,
2013-10-04 10:53:00,55.8,51.6,30.09,East,97,0.0,1.0,86,0.00,,,0.00,meteohub,2013-10-04 14:53:00,
2013-10-04 10:58:00,56.1,51.6,30.09,East,97,0.0,1.0,85,0.00,,,0.00,meteohub,2013-10-04 14:58:00,
2013-10-04 11:03:00,56.7,52.5,30.08,East,97,0.0,1.0,86,0.00,,,0.00,meteohub,2013-10-04 15:03:00,
2013-10-04 11:08:00,57.0,52.5,30.08,East,97,0.0,1.0,85,0.00,,,0.00,meteohub,2013-10-04 15:08:00,
2013-10-04 11:13:00,57.4,52.3,30.08,East,97,0.0,1.0,83,0.00,,,0.00,meteohub,2013-10-04 15:13:00,
2013-10-04 11:17:00,57.6,52.7,30.07,East,97,0.0,1.0,84,0.00,,,0.00,meteohub,2013-10-04 15:17:00,
2013-10-04 11:22:00,57.7,52.3,30.07,East,97,0.0,1.0,82,0.00,,,0.00,meteohub,2013-10-04 15:22:00,
2013-10-04 11:27:00,57.9,52.7,30.07,East,97,0.0,0.0,83,0.00,,,0.00,meteohub,2013-10-04 15:27:00,
2013-10-04 11:32:00,58.5,53.1,30.07,East,97,0.0,0.0,82,0.00,,,0.00,meteohub,2013-10-04 15:32:00,
2013-10-04 11:37:00,58.6,52.9,30.07,East,97,0.0,1.0,81,0.00,,,0.00,meteohub,2013-10-04 15:37:00,
2013-10-04 11:42:00,59.0,53.2,30.07,East,97,0.0,1.0,81,0.00,,,0.00,meteohub,2013-10-04 15:42:00,
2013-10-04 11:47:00,59.2,53.4,30.07,East,97,0.0,1.0,81,0.00,,,0.00,meteohub,2013-10-04 15:47:00,
2013-10-04 11:52:00,59.4,53.6,30.07,East,97,0.0,0.0,81,0.00,,,0.00,meteohub,2013-10-04 15:52:00,
2013-10-04 11:57:00,59.7,54.0,30.07,East,97,0.0,0.0,81,0.00,,,0.00,meteohub,2013-10-04 15:57:00,
2013-10-04 12:02:00,59.9,53.4,30.07,East,97,0.0,1.0,79,0.00,,,0.00,meteohub,2013-10-04 16:02:00,
2013-10-04 12:07:00,60.1,53.6,30.07,ESE,108,0.0,1.0,79,0.00,,,0.00,meteohub,2013-10-04 16:07:00,
2013-10-04 12:12:00,60.3,54.1,30.07,ESE,108,0.0,1.0,80,0.00,,,0.00,meteohub,2013-10-04 16:12:00,
2013-10-04 12:17:00,60.4,54.3,30.07,ESE,108,0.0,2.0,80,0.00,,,0.00,meteohub,2013-10-04 16:17:00,
2013-10-04 12:22:00,60.4,54.0,30.07,ESE,108,0.0,2.0,79,0.00,,,0.00,meteohub,2013-10-04 16:22:00,
2013-10-04 12:27:00,60.8,53.6,30.07,ESE,108,0.0,2.0,77,0.00,,,0.00,meteohub,2013-10-04 16:27:00,
2013-10-04 12:32:00,61.2,54.0,30.06,ESE,108,0.0,2.0,77,0.00,,,0.00,meteohub,2013-10-04 16:32:00,
2013-10-04 12:37:00,61.3,53.1,30.07,ESE,108,0.0,2.0,74,0.00,,,0.00,meteohub,2013-10-04 16:37:00,
2013-10-04 12:42:00,61.5,53.6,30.06,ESE,108,1.0,2.0,75,0.00,,,0.00,meteohub,2013-10-04 16:42:00,
2013-10-04 12:47:00,61.7,53.8,30.06,ESE,108,0.0,1.0,75,0.00,,,0.00,meteohub,2013-10-04 16:47:00,
2013-10-04 12:52:00,61.9,53.8,30.06,ESE,108,0.0,1.0,75,0.00,,,0.00,meteohub,2013-10-04 16:52:00,
2013-10-04 12:57:00,62.1,53.6,30.06,ESE,108,0.0,1.0,74,0.00,,,0.00,meteohub,2013-10-04 16:57:00,
2013-10-04 13:02:00,62.2,53.8,30.06,ESE,108,0.0,1.0,74,0.00,,,0.00,meteohub,2013-10-04 17:02:00,
2013-10-04 13:07:00,62.4,54.0,30.06,ESE,108,0.0,1.0,74,0.00,,,0.00,meteohub,2013-10-04 17:07:00,
2013-10-04 13:12:00,62.2,53.8,30.06,North,11,2.0,2.0,74,0.00,,,0.00,meteohub,2013-10-04 17:12:00,
2013-10-04 13:17:00,62.1,54.3,30.05,North,9,1.0,2.0,76,0.00,,,0.00,meteohub,2013-10-04 17:17:00,
2013-10-04 13:22:00,61.9,53.8,30.05,North,9,0.0,2.0,75,0.00,,,0.00,meteohub,2013-10-04 17:22:00,
2013-10-04 13:27:00,61.9,53.8,30.05,North,9,1.0,2.0,75,0.00,,,0.00,meteohub,2013-10-04 17:27:00,
2013-10-04 13:32:00,61.9,53.8,30.04,North,9,0.0,2.0,75,0.00,,,0.00,meteohub,2013-10-04 17:32:00,
2013-10-04 14:02:00,62.4,54.3,30.04,North,9,0.0,2.0,75,0.00,,,0.00,meteohub,2013-10-04 18:02:00,
2013-10-04 14:08:00,62.8,54.7,30.03,ESE,122,1.0,2.0,75,0.00,,,0.00,meteohub,2013-10-04 18:08:00,
2013-10-04 14:13:00,63.1,54.7,30.03,ESE,122,0.0,2.0,74,0.00,,,0.00,meteohub,2013-10-04 18:13:00,
2013-10-04 14:18:00,63.3,54.5,30.03,ESE,122,0.0,2.0,73,0.00,,,0.00,meteohub,2013-10-04 18:18:00,
2013-10-04 14:23:00,63.7,55.2,30.03,ESE,122,0.0,2.0,74,0.00,,,0.00,meteohub,2013-10-04 18:23:00,
2013-10-04 14:28:00,63.7,54.9,30.04,SE,126,0.0,2.0,73,0.00,,,0.00,meteohub,2013-10-04 18:28:00,
2013-10-04 14:33:00,63.7,54.9,30.03,West,267,0.0,2.0,73,0.00,,,0.00,meteohub,2013-10-04 18:33:00,
2013-10-04 14:38:00,63.9,54.7,30.04,SSE,161,1.0,2.0,72,0.00,,,0.00,meteohub,2013-10-04 18:38:00,
2013-10-04 14:43:00,63.9,54.3,30.04,ESE,122,0.0,3.0,71,0.00,,,0.00,meteohub,2013-10-04 18:43:00,
2013-10-04 14:48:00,63.9,54.3,30.04,ESE,122,0.0,3.0,71,0.00,,,0.00,meteohub,2013-10-04 18:48:00,
2013-10-04 14:53:00,64.0,54.9,30.04,ESE,122,0.0,3.0,72,0.00,,,0.00,meteohub,2013-10-04 18:53:00,
2013-10-04 14:58:00,64.0,54.1,30.04,ESE,122,0.0,2.0,70,0.00,,,0.00,meteohub,2013-10-04 18:58:00,
2013-10-04 15:03:00,64.0,54.1,30.04,ESE,122,0.0,2.0,70,0.00,,,0.00,meteohub,2013-10-04 19:03:00,
2013-10-04 15:08:00,64.0,54.1,30.04,ESE,122,0.0,1.0,70,0.00,,,0.00,meteohub,2013-10-04 19:08:00,
2013-10-04 15:13:00,64.0,55.6,30.04,ESE,122,0.0,1.0,74,0.00,,,0.00,meteohub,2013-10-04 19:13:00,
2013-10-04 15:18:00,64.0,55.2,30.04,ESE,122,0.0,1.0,73,0.00,,,0.00,meteohub,2013-10-04 19:18:00,
2013-10-04 15:23:00,63.9,55.4,30.04,ESE,122,0.0,1.0,74,0.00,,,0.00,meteohub,2013-10-04 19:23:00,
2013-10-04 15:28:00,63.9,55.4,30.04,ESE,122,0.0,0.0,74,0.00,,,0.00,meteohub,2013-10-04 19:28:00,
2013-10-04 15:33:00,63.9,55.8,30.04,ESE,122,0.0,0.0,75,0.00,,,0.00,meteohub,2013-10-04 19:33:00,
2013-10-04 15:38:00,63.7,55.6,30.04,ESE,122,0.0,0.0,75,0.00,,,0.00,meteohub,2013-10-04 19:38:00,
2013-10-04 15:43:00,63.9,55.8,30.04,ESE,122,0.0,0.0,75,0.00,,,0.00,meteohub,2013-10-04 19:43:00,
2013-10-04 15:48:00,63.7,55.2,30.04,ESE,122,0.0,0.0,74,0.00,,,0.00,meteohub,2013-10-04 19:48:00,
2013-10-04 15:53:00,63.7,55.2,30.04,ESE,122,0.0,0.0,74,0.00,,,0.00,meteohub,2013-10-04 19:53:00,
2013-10-04 15:58:00,63.7,54.9,30.03,ESE,122,0.0,0.0,73,0.00,,,0.00,meteohub,2013-10-04 19:58:00,
2013-10-04 16:03:00,63.7,55.6,30.03,ESE,122,0.0,1.0,75,0.00,,,0.00,meteohub,2013-10-04 20:03:00,
2013-10-04 16:08:00,63.7,55.6,30.03,ESE,122,0.0,1.0,75,0.00,,,0.00,meteohub,2013-10-04 20:08:00,
2013-10-04 16:13:00,63.7,55.6,30.04,ESE,122,0.0,0.0,75,0.00,,,0.00,meteohub,2013-10-04 20:13:00,
2013-10-04 16:18:00,63.3,54.1,30.04,ESE,122,0.0,0.0,72,0.00,,,0.00,meteohub,2013-10-04 20:18:00,
2013-10-04 16:23:00,63.1,53.6,30.04,ESE,122,0.0,1.0,71,0.00,,,0.00,meteohub,2013-10-04 20:23:00,
2013-10-04 16:28:00,63.1,55.0,30.04,ESE,122,0.0,1.0,75,0.00,,,0.00,meteohub,2013-10-04 20:28:00,
2013-10-04 16:33:00,63.1,55.4,30.04,ESE,122,0.0,1.0,76,0.00,,,0.00,meteohub,2013-10-04 20:33:00,
2013-10-04 16:38:00,63.0,55.6,30.04,ESE,122,0.0,1.0,77,0.00,,,0.00,meteohub,2013-10-04 20:38:00,
2013-10-04 16:43:00,62.8,55.8,30.04,ESE,122,0.0,1.0,78,0.00,,,0.00,meteohub,2013-10-04 20:43:00,
2013-10-04 16:48:00,62.6,55.9,30.04,ESE,122,0.0,1.0,79,0.00,,,0.00,meteohub,2013-10-04 20:48:00,
2013-10-04 16:53:00,62.4,55.8,30.04,ESE,122,0.0,0.0,79,0.00,,,0.00,meteohub,2013-10-04 20:53:00,
2013-10-04 16:58:00,62.2,55.6,30.04,ESE,122,0.0,0.0,79,0.00,,,0.00,meteohub,2013-10-04 20:58:00,
2013-10-04 17:03:00,62.2,55.9,30.04,ESE,122,0.0,0.0,80,0.00,,,0.00,meteohub,2013-10-04 21:03:00,
2013-10-04 17:08:00,62.1,55.8,30.04,ESE,122,0.0,0.0,80,0.00,,,0.00,meteohub,2013-10-04 21:08:00,
2013-10-04 17:13:00,62.1,56.1,30.04,ESE,122,0.0,0.0,81,0.00,,,0.00,meteohub,2013-10-04 21:13:00,
2013-10-04 17:18:00,61.9,56.3,30.04,ESE,122,0.0,0.0,82,0.00,,,0.00,meteohub,2013-10-04 21:18:00,
2013-10-04 17:23:00,61.9,57.0,30.04,ESE,122,0.0,0.0,84,0.00,,,0.00,meteohub,2013-10-04 21:23:00,
2013-10-04 17:28:00,61.9,56.3,30.04,ESE,122,0.0,1.0,82,0.00,,,0.00,meteohub,2013-10-04 21:28:00,
2013-10-04 17:33:00,61.7,56.5,30.04,ESE,122,0.0,1.0,83,0.00,,,0.00,meteohub,2013-10-04 21:33:00,
2013-10-04 17:38:00,61.7,56.5,30.04,ESE,122,0.0,1.0,83,0.00,,,0.00,meteohub,2013-10-04 21:38:00,
2013-10-04 17:43:00,61.5,56.7,30.04,ESE,122,0.0,0.0,84,0.00,,,0.00,meteohub,2013-10-04 21:43:00,
2013-10-04 17:48:00,61.3,56.1,30.04,ESE,122,0.0,1.0,83,0.00,,,0.00,meteohub,2013-10-04 21:48:00,
2013-10-04 17:53:00,61.3,56.5,30.04,ESE,122,0.0,1.0,84,0.00,,,0.00,meteohub,2013-10-04 21:53:00,
2013-10-04 17:58:00,61.2,55.9,30.04,ESE,122,0.0,1.0,83,0.00,,,0.00,meteohub,2013-10-04 21:58:00,
2013-10-04 18:03:00,61.2,56.3,30.04,ESE,122,0.0,0.0,84,0.00,,,0.00,meteohub,2013-10-04 22:03:00,
2013-10-04 18:08:00,61.0,56.1,30.04,ESE,122,0.0,0.0,84,0.00,,,0.00,meteohub,2013-10-04 22:08:00,
2013-10-04 18:13:00,61.0,56.5,30.04,ESE,122,0.0,0.0,85,0.00,,,0.00,meteohub,2013-10-04 22:13:00,
2013-10-04 18:18:00,60.6,56.1,30.04,ESE,122,0.0,0.0,85,0.00,,,0.00,meteohub,2013-10-04 22:18:00,
2013-10-04 18:23:00,60.4,56.3,30.04,ESE,122,0.0,0.0,86,0.00,,,0.00,meteohub,2013-10-04 22:23:00,
2013-10-04 18:28:00,60.3,55.8,30.04,ESE,122,0.0,0.0,85,0.00,,,0.00,meteohub,2013-10-04 22:28:00,
2013-10-04 18:33:00,60.3,55.8,30.04,ESE,122,0.0,1.0,85,0.00,,,0.00,meteohub,2013-10-04 22:33:00,
2013-10-04 18:38:00,60.1,55.9,30.04,ESE,122,1.0,1.0,86,0.00,,,0.00,meteohub,2013-10-04 22:38:00,
2013-10-04 18:43:00,59.9,55.8,30.04,ESE,122,0.0,2.0,86,0.00,,,0.00,meteohub,2013-10-04 22:43:00,
2013-10-04 18:48:00,59.7,55.6,30.04,ESE,122,0.0,2.0,86,0.00,,,0.00,meteohub,2013-10-04 22:48:00,
2013-10-04 18:53:00,59.7,55.8,30.04,NE,44,1.0,2.0,87,0.00,,,0.00,meteohub,2013-10-04 22:53:00,
2013-10-04 18:58:00,59.7,55.8,30.04,NE,37,0.0,2.0,87,0.00,,,0.00,meteohub,2013-10-04 22:58:00,
2013-10-04 19:03:00,59.5,55.6,30.04,NE,37,0.0,2.0,87,0.00,,,0.00,meteohub,2013-10-04 23:03:00,
2013-10-04 19:08:00,59.5,55.9,30.04,NE,37,0.0,2.0,88,0.00,,,0.00,meteohub,2013-10-04 23:08:00,
2013-10-04 19:13:00,59.4,55.8,30.04,NE,37,0.0,2.0,88,0.00,,,0.00,meteohub,2013-10-04 23:13:00,
2013-10-04 19:18:00,59.4,55.8,30.04,NE,37,0.0,0.0,88,0.00,,,0.00,meteohub,2013-10-04 23:18:00,
2013-10-04 19:23:00,59.4,55.8,30.05,NE,37,0.0,1.0,88,0.00,,,0.00,meteohub,2013-10-04 23:23:00,
2013-10-04 19:28:00,59.4,55.8,30.05,NE,37,0.0,1.0,88,0.00,,,0.00,meteohub,2013-10-04 23:28:00,
2013-10-04 19:33:00,59.4,55.8,30.05,NE,37,0.0,1.0,88,0.00,,,0.00,meteohub,2013-10-04 23:33:00,
2013-10-04 19:38:00,59.4,56.1,30.05,NE,37,1.0,1.0,89,0.00,,,0.00,meteohub,2013-10-04 23:38:00,
2013-10-04 19:43:00,59.2,55.9,30.04,NE,37,0.0,1.0,89,0.00,,,0.00,meteohub,2013-10-04 23:43:00,
2013-10-04 19:48:00,59.2,55.6,30.04,NE,37,0.0,1.0,88,0.00,,,0.00,meteohub,2013-10-04 23:48:00,
2013-10-04 19:53:00,59.2,55.9,30.04,NE,37,0.0,1.0,89,0.00,,,0.00,meteohub,2013-10-04 23:53:00,
2013-10-04 19:58:00,59.2,55.9,30.04,NE,37,0.0,1.0,89,0.00,,,0.00,meteohub,2013-10-04 23:58:00,
2013-10-04 20:03:00,59.0,55.8,30.04,NE,37,0.0,0.0,89,0.00,,,0.00,meteohub,2013-10-05 00:03:00,
2013-10-04 20:08:00,58.8,55.6,30.04,NE,37,0.0,0.0,89,0.00,,,0.00,meteohub,2013-10-05 00:08:00,
2013-10-04 20:13:00,58.6,55.4,30.04,NE,37,0.0,0.0,89,0.00,,,0.00,meteohub,2013-10-05 00:13:00,
2013-10-04 20:19:00,58.6,55.4,30.05,NE,37,0.0,0.0,89,0.00,,,0.00,meteohub,2013-10-05 00:19:00,
2013-10-04 20:24:00,58.5,55.2,30.05,NE,37,0.0,0.0,89,0.00,,,0.00,meteohub,2013-10-05 00:24:00,
2013-10-04 20:29:00,58.5,55.6,30.05,NE,37,0.0,0.0,90,0.00,,,0.00,meteohub,2013-10-05 00:29:00,
2013-10-04 20:33:00,58.3,55.4,30.05,NE,37,0.0,0.0,90,0.00,,,0.00,meteohub,2013-10-05 00:33:00,
2013-10-04 20:39:00,58.3,55.4,30.05,NE,37,0.0,0.0,90,0.00,,,0.00,meteohub,2013-10-05 00:39:00,
2013-10-04 20:44:00,58.3,55.6,30.05,NE,37,1.0,1.0,91,0.00,,,0.00,meteohub,2013-10-05 00:44:00,
2013-10-04 20:49:00,58.1,55.4,30.06,NE,37,0.0,1.0,91,0.00,,,0.00,meteohub,2013-10-05 00:49:00,
2013-10-04 20:54:00,58.1,55.4,30.06,NE,37,0.0,2.0,91,0.00,,,0.00,meteohub,2013-10-05 00:54:00,
2013-10-04 20:59:00,57.9,55.2,30.06,NE,37,0.0,2.0,91,0.00,,,0.00,meteohub,2013-10-05 00:59:00,
2013-10-04 21:04:00,57.9,55.2,30.06,NE,37,0.0,1.0,91,0.00,,,0.00,meteohub,2013-10-05 01:04:00,
2013-10-04 21:09:00,58.1,55.4,30.06,NE,37,0.0,0.0,91,0.00,,,0.00,meteohub,2013-10-05 01:09:00,
2013-10-04 21:14:00,58.1,55.4,30.06,NE,37,0.0,0.0,91,0.00,,,0.00,meteohub,2013-10-05 01:14:00,
2013-10-04 21:19:00,58.1,55.4,30.06,NE,37,0.0,0.0,91,0.00,,,0.00,meteohub,2013-10-05 01:19:00,
2013-10-04 21:24:00,58.1,55.4,30.06,NE,37,0.0,0.0,91,0.00,,,0.00,meteohub,2013-10-05 01:24:00,
2013-10-04 21:29:00,57.9,55.2,30.06,NE,37,0.0,1.0,91,0.00,,,0.00,meteohub,2013-10-05 01:29:00,
2013-10-04 21:34:00,57.9,55.2,30.06,NE,37,0.0,1.0,91,0.00,,,0.00,meteohub,2013-10-05 01:34:00,
2013-10-04 21:39:00,57.9,55.2,30.06,NE,37,0.0,1.0,91,0.00,,,0.00,meteohub,2013-10-05 01:39:00,
2013-10-04 21:44:00,57.9,55.2,30.06,NE,37,0.0,0.0,91,0.00,,,0.00,meteohub,2013-10-05 01:44:00,
2013-10-04 21:49:00,57.9,55.2,30.06,NE,37,0.0,1.0,91,0.00,,,0.00,meteohub,2013-10-05 01:49:00,
2013-10-04 21:54:00,57.9,55.2,30.06,NE,37,0.0,1.0,91,0.00,,,0.00,meteohub,2013-10-05 01:54:00,
2013-10-04 21:59:00,57.9,55.2,30.06,NE,37,0.0,1.0,91,0.00,,,0.00,meteohub,2013-10-05 01:59:00,
2013-10-04 22:04:00,57.7,55.2,30.07,NE,37,0.0,1.0,91,0.00,,,0.00,meteohub,2013-10-05 02:04:00,
2013-10-04 22:09:00,57.7,55.2,30.07,NE,37,0.0,0.0,91,0.00,,,0.00,meteohub,2013-10-05 02:09:00,
2013-10-04 22:14:00,57.7,55.2,30.06,NE,37,0.0,0.0,91,0.00,,,0.00,meteohub,2013-10-05 02:14:00,
2013-10-04 22:19:00,57.7,55.2,30.06,NE,37,0.0,0.0,91,0.00,,,0.00,meteohub,2013-10-05 02:19:00,
2013-10-04 22:24:00,57.7,54.9,30.06,NE,37,0.0,0.0,90,0.00,,,0.00,meteohub,2013-10-05 02:24:00,
2013-10-04 22:29:00,57.7,55.2,30.06,NE,37,0.0,0.0,91,0.00,,,0.00,meteohub,2013-10-05 02:29:00,
2013-10-04 22:34:00,57.7,55.2,30.06,NE,37,0.0,0.0,91,0.00,,,0.00,meteohub,2013-10-05 02:34:00,
2013-10-04 22:39:00,57.6,55.0,30.07,NE,37,0.0,0.0,91,0.00,,,0.00,meteohub,2013-10-05 02:39:00,
2013-10-04 22:44:00,57.6,55.0,30.07,NE,37,0.0,0.0,91,0.00,,,0.00,meteohub,2013-10-05 02:44:00,
2013-10-04 22:49:00,57.6,55.0,30.07,NE,37,0.0,0.0,91,0.00,,,0.00,meteohub,2013-10-05 02:49:00,
2013-10-04 22:54:00,57.6,55.0,30.07,NE,37,0.0,0.0,91,0.00,,,0.00,meteohub,2013-10-05 02:54:00,
2013-10-04 22:59:00,57.6,55.2,30.07,NE,37,0.0,0.0,92,0.00,,,0.00,meteohub,2013-10-05 02:59:00,
2013-10-04 23:04:00,57.6,55.2,30.08,NE,37,0.0,0.0,92,0.00,,,0.00,meteohub,2013-10-05 03:04:00,
2013-10-04 23:09:00,57.6,55.2,30.08,NE,37,0.0,0.0,92,0.00,,,0.00,meteohub,2013-10-05 03:09:00,
2013-10-04 23:14:00,57.6,55.0,30.07,NE,37,0.0,0.0,91,0.00,,,0.00,meteohub,2013-10-05 03:14:00,
2013-10-04 23:19:00,57.6,55.2,30.06,NE,37,0.0,0.0,92,0.00,,,0.00,meteohub,2013-10-05 03:19:00,
2013-10-04 23:24:00,57.6,55.2,30.06,NE,37,1.0,0.0,92,0.00,,,0.00,meteohub,2013-10-05 03:24:00,
2013-10-04 23:29:00,57.4,55.0,30.07,NE,37,0.0,1.0,92,0.00,,,0.00,meteohub,2013-10-05 03:29:00,
2013-10-04 23:34:00,57.4,55.0,30.07,NE,37,0.0,2.0,92,0.00,,,0.00,meteohub,2013-10-05 03:34:00,
2013-10-04 23:39:00,57.4,55.0,30.06,NE,37,0.0,2.0,92,0.00,,,0.00,meteohub,2013-10-05 03:39:00,
2013-10-04 23:44:00,57.4,55.0,30.06,NE,37,0.0,2.0,92,0.00,,,0.00,meteohub,2013-10-05 03:44:00,
2013-10-04 23:49:00,57.2,54.9,30.06,NE,37,0.0,1.0,92,0.00,,,0.00,meteohub,2013-10-05 03:49:00,
2013-10-04 23:54:00,57.2,54.9,30.06,NE,37,0.0,0.0,92,0.00,,,0.00,meteohub,2013-10-05 03:54:00,
2013-10-04 23:59:00,57.2,54.9,30.06,NE,37,0.0,0.0,92,0.00,,,0.00,meteohub,2013-10-05 03:59:00,